Home > Products > Valid Products > TAF

000
FTUS43 KLSX 172000 AAA
TAFSTL
TAF AMD
KSTL 172052Z 1721/1824 VRB05KT P6SM SCT120 BKN250
     FM180300 36004KT P6SM BKN050
     FM180900 VRB04KT P6SM SCT050
     FM181900 06004KT P6SM SCT050=



000
FTUS43 KLSX 171700
TAFSUS
TAF
KSUS 171720Z 1718/1818 28009KT P6SM BKN250
     FM172200 29005KT P6SM SCT050 BKN120
     FM180300 VRB03KT P6SM BKN050
     FM180900 VRB04KT P6SM SCT050=



000
FTUS43 KLSX 171700
TAFUIN
TAF
KUIN 171720Z 1718/1818 31007KT P6SM SCT020 BKN250
     FM172300 34005KT P6SM BKN050
     FM180300 VRB04KT P6SM SCT050 BKN120
     FM181400 VRB04KT P6SM SCT250=



000
FTUS43 KLSX 171700
TAFCOU
TAF
KCOU 171720Z 1718/1818 VRB03KT P6SM SCT025 BKN250
     FM180000 35005KT P6SM BKN050
     FM180400 VRB04KT P6SM SCT050 BKN120
     FM181400 VRB04KT P6SM SCT250=



000
FTUS43 KLSX 171700
TAFSTL
TAF
KSTL 171720Z 1718/1824 23007KT P6SM SCT120 BKN250
     FM172200 27005KT P6SM SCT050 BKN120
     FM180300 36004KT P6SM BKN050
     FM180900 VRB04KT P6SM SCT050
     FM181900 06004KT P6SM SCT050=



000
FTUS43 KLSX 171400 AAA
TAFSTL
TAF AMD
KSTL 171458Z 1715/1818 24009KT P6SM SCT120 BKN250
     FM172200 27005KT P6SM BKN120
     FM180300 35004KT P6SM OVC050=



000
FTUS43 KLSX 171100
TAFSTL
TAF
KSTL 171137Z 1712/1818 19007KT P6SM BKN250
     FM171400 23009KT P6SM BKN150
     FM172200 27005KT P6SM BKN120
     FM180300 35004KT P6SM OVC050=



000
FTUS43 KLSX 171100
TAFUIN
TAF
KUIN 171137Z 1712/1812 29008KT P6SM BKN015 BKN120
      TEMPO 1712/1713 SCT015
     FM171700 29007KT P6SM SCT030 BKN120
     FM180400 34005KT P6SM BKN080=



000
FTUS43 KLSX 171100
TAFSUS
TAF
KSUS 171137Z 1712/1812 VRB03KT P6SM BKN250 WS015/24035KT
     FM171400 23009KT P6SM BKN150
     FM172200 27005KT P6SM BKN120
     FM180300 VRB03KT P6SM OVC050=



000
FTUS43 KLSX 171100
TAFCOU
TAF
KCOU 171137Z 1712/1812 29007KT P6SM SCT025 BKN120
     FM172300 35005KT P6SM OVC080
     FM180600 36004KT P6SM BKN080=



000
FTUS43 KLSX 171000 AAA
TAFSUS
TAF AMD
KSUS 171003Z 1710/1806 00000KT P6SM BKN250 WS015/25035KT
     FM171300 20006KT P6SM BKN250
     FM171500 22007KT P6SM SCT040 BKN150
     FM172000 28010KT P6SM BKN070
     FM180300 VRB05KT P6SM OVC050=



000
FTUS43 KLSX 170900 AAA
TAFSTL
TAF AMD
KSTL 170913Z 1709/1812 17007KT P6SM BKN250
     FM171500 22008KT P6SM SCT040 BKN150
     FM172000 28008KT P6SM BKN070
     FM180300 VRB05KT P6SM OVC050=



000
FTUS43 KLSX 170800 AAA
TAFUIN
TAF AMD
KUIN 170830Z 1709/1806 21011KT P6SM BKN150
     FM171200 29008KT P6SM BKN015 BKN120
     FM171600 29007KT P6SM BKN120
     FM180000 VRB05KT P6SM OVC100=



000
FTUS43 KLSX 170500
TAFUIN
TAF
KUIN 170520Z 1706/1806 16012KT P6SM BKN250
     FM170900 21009KT P6SM BKN150
     FM171200 30010KT P6SM SCT040 BKN120
     FM180000 VRB05KT P6SM OVC100=



000
FTUS43 KLSX 170500
TAFCOU
TAF
KCOU 170520Z 1706/1806 16012KT P6SM BKN250
     FM170900 21009KT P6SM BKN150
     FM171200 29010KT P6SM SCT040 BKN120
     FM180000 VRB05KT P6SM OVC100=



000
FTUS43 KLSX 170500
TAFSTL
TAF
KSTL 170520Z 1706/1812 17007KT P6SM BKN250
     FM171500 22010KT P6SM SCT040 BKN150
     FM172000 28010KT P6SM BKN070
     FM180300 VRB05KT P6SM OVC050=



000
FTUS43 KLSX 170500
TAFSUS
TAF
KSUS 170520Z 1706/1806 16007KT P6SM BKN250
     FM171500 22007KT P6SM SCT040 BKN150
     FM172000 28010KT P6SM BKN070
     FM180300 VRB05KT P6SM OVC050=



000
FTUS43 KLSX 170200 AAA
TAFSTL
TAF AMD
KSTL 170245Z 1703/1806 16015KT P6SM BKN250
     FM171500 22010KT P6SM SCT040 BKN150
     FM172000 28010KT P6SM BKN070
     FM180300 VRB05KT P6SM OVC050=



000
FTUS43 KLSX 170100 AAA
TAFSUS
TAF AMD
KSUS 170119Z 1701/1724 16007KT P6SM BKN250
     FM171500 22007KT P6SM SCT040 BKN150
     FM172000 28010KT P6SM BKN070=



000
FTUS43 KLSX 170100 AAA
TAFCOU
TAF AMD
KCOU 170118Z 1701/1724 16012KT P6SM BKN250
     FM170900 21009KT P6SM BKN150
     FM171200 29010KT P6SM SCT040 BKN120=



000
FTUS43 KLSX 170100 AAA
TAFUIN
TAF AMD
KUIN 170117Z 1701/1724 16012KT P6SM BKN250
     FM170900 21009KT P6SM BKN150
     FM171200 30010KT P6SM SCT040 BKN120=



000
FTUS43 KLSX 162300
TAFCOU
TAF
KCOU 162320Z 1700/1724 16012KT P6SM BKN250
     FM170900 19009KT P6SM BKN150
     FM171500 27006KT P6SM SCT040 BKN120=



000
FTUS43 KLSX 162300
TAFUIN
TAF
KUIN 162320Z 1700/1724 16012KT P6SM BKN250
     FM170900 21009KT P6SM BKN150
     FM171500 28006KT P6SM SCT040 BKN120=



000
FTUS43 KLSX 162300
TAFSUS
TAF
KSUS 162320Z 1700/1724 16007KT P6SM BKN250
     FM171500 22007KT P6SM SCT040 BKN150=



000
FTUS43 KLSX 162300
TAFSTL
TAF
KSTL 162320Z 1700/1806 16012KT P6SM BKN250
     FM171500 22009KT P6SM SCT040 BKN150
     FM172100 28007KT P6SM BKN070
     FM180300 VRB05KT P6SM OVC050=



000
FTUS43 KLSX 162000 AAA
TAFSTL
TAF AMD
KSTL 162056Z 1621/1724 16017G27KT P6SM BKN250
     FM170100 16012KT P6SM BKN250
     FM171500 22009KT P6SM SCT040 BKN150
     FM172100 28007KT P6SM BKN070=



000
FTUS43 KLSX 161700
TAFSUS
TAF
KSUS 161720Z 1618/1718 17016G26KT P6SM BKN250
     FM170100 16007KT P6SM BKN250
     FM171500 22007KT P6SM SCT040 BKN150=



000
FTUS43 KLSX 161700
TAFUIN
TAF
KUIN 161720Z 1618/1718 17022G30KT P6SM BKN250
     FM170100 16012KT P6SM BKN250
     FM170900 21009KT P6SM BKN150
     FM171500 28006KT P6SM SCT040 BKN120=



000
FTUS43 KLSX 161700
TAFCOU
TAF
KCOU 161720Z 1618/1718 17022G30KT P6SM BKN250
     FM170000 16012KT P6SM BKN250
     FM170900 19009KT P6SM BKN150
     FM171500 27006KT P6SM SCT040 BKN120=



000
FTUS43 KLSX 161700
TAFSTL
TAF
KSTL 161720Z 1618/1724 17020G28KT P6SM BKN250
     FM170000 16013KT P6SM BKN250
     FM171500 22009KT P6SM SCT040 BKN150
     FM172100 28007KT P6SM BKN070=



000
FTUS43 KLSX 161400 AAA
TAFSTL
TAF AMD
KSTL 161456Z 1615/1718 16014G23KT P6SM BKN250
     FM161900 17020G28KT P6SM BKN250
     FM170000 16010KT P6SM BKN250
     FM171500 23007KT P6SM SCT070=



000
FTUS43 KLSX 161100
TAFUIN
TAF
KUIN 161139Z 1612/1712 16014KT P6SM SCT250
     FM161500 17022G30KT P6SM BKN250
     FM170100 17013KT P6SM BKN250=



000
FTUS43 KLSX 161100
TAFSUS
TAF
KSUS 161139Z 1612/1712 15005KT P6SM SCT250
     FM161300 15014KT P6SM SCT250
     FM161600 16016G25KT P6SM BKN250
     FM170200 16005KT P6SM BKN250=



000
FTUS43 KLSX 161100
TAFCOU
TAF
KCOU 161139Z 1612/1712 15014KT P6SM SCT250
     FM161500 17022G30KT P6SM BKN250
     FM170000 17010KT P6SM BKN250=



000
FTUS43 KLSX 161100
TAFSTL
TAF
KSTL 161139Z 1612/1718 15012KT P6SM SCT250
     FM161600 16017G26KT P6SM BKN250
     FM170000 16010KT P6SM BKN250
     FM171500 23007KT P6SM SCT070=



000
FTUS43 KLSX 160900 AAA
TAFSTL
TAF AMD
KSTL 160918Z 1609/1712 16012KT P6SM SCT250
     FM161500 17020G30KT P6SM BKN250
     FM170000 16010KT P6SM BKN250=



000
FTUS43 KLSX 160500
TAFSTL
TAF
KSTL 160520Z 1606/1712 14007KT P6SM SCT250
     FM161500 17020G30KT P6SM BKN250
     FM170000 16010KT P6SM BKN250=



000
FTUS43 KLSX 160500
TAFUIN
TAF
KUIN 160520Z 1606/1706 16007KT P6SM SCT250
     FM161500 17022G30KT P6SM BKN250
     FM170000 16010KT P6SM BKN250=



000
FTUS43 KLSX 160500
TAFSUS
TAF
KSUS 160520Z 1606/1706 14003KT P6SM SCT250
     FM161500 17020G30KT P6SM BKN250
     FM170000 16010KT P6SM BKN250=



000
FTUS43 KLSX 160500
TAFCOU
TAF
KCOU 160520Z 1606/1706 15009KT P6SM SCT250
     FM161500 17022G30KT P6SM BKN250
     FM170000 16010KT P6SM BKN250=



000
FTUS43 KLSX 160200 AAA
TAFSTL
TAF AMD
KSTL 160251Z 1603/1706 10007KT P6SM SCT250
     FM161500 17020G30KT P6SM BKN250
     FM170000 18010KT P6SM BKN250=



000
FTUS43 KLSX 152300
TAFCOU
TAF
KCOU 152320Z 1600/1624 15009KT P6SM SCT250
     FM161500 17020G30KT P6SM BKN250=



000
FTUS43 KLSX 152300
TAFSUS
TAF
KSUS 152320Z 1600/1624 VRB03KT P6SM SCT250
     FM161500 17020G30KT P6SM BKN250=



000
FTUS43 KLSX 152300
TAFSTL
TAF
KSTL 152320Z 1600/1706 15007KT P6SM SCT250
     FM161500 17020G30KT P6SM BKN250
     FM170000 18010KT P6SM BKN250=



000
FTUS43 KLSX 152300
TAFUIN
TAF
KUIN 152320Z 1600/1624 16007KT P6SM SCT250
     FM161500 18020G30KT P6SM BKN250=



000
FTUS43 KLSX 152100 AAA
TAFSTL
TAF AMD
KSTL 152106Z 1521/1624 31010G17KT P6SM SCT050
     FM160000 VRB04KT P6SM SKC
     FM160600 15007KT P6SM SKC
     FM161500 17018G28KT P6SM BKN250=



000
FTUS43 KLSX 151700
TAFCOU
TAF
KCOU 151736Z 1518/1618 30007KT P6SM SCT050
     FM152300 VRB04KT P6SM SKC
     FM160600 16009KT P6SM SKC
     FM161000 17015G25KT P6SM SCT250=



000
FTUS43 KLSX 151700
TAFUIN
TAF
KUIN 151736Z 1518/1618 33010G17KT P6SM SCT050
     FM152300 VRB04KT P6SM SKC
     FM160500 15008KT P6SM SCT250
     FM161000 17015G25KT P6SM BKN250=



000
FTUS43 KLSX 151700
TAFSTL
TAF
KSTL 151736Z 1518/1624 32010G17KT P6SM SCT050
     FM160000 VRB04KT P6SM SKC
     FM160600 15007KT P6SM SKC
     FM161500 17018G28KT P6SM BKN250=



000
FTUS43 KLSX 151700
TAFSUS
TAF
KSUS 151736Z 1518/1618 30010G17KT P6SM SCT050
     FM152300 VRB03KT P6SM SKC
     FM160900 15004KT P6SM SKC
     FM161500 17015G25KT P6SM BKN250=



000
FTUS43 KLSX 151500 AAA
TAFSTL
TAF AMD
KSTL 151501Z 1515/1618 33010G17KT P6SM SKC
     FM151600 34010G17KT P6SM SCT030
     FM160000 VRB04KT P6SM SKC
     FM160500 15005KT P6SM SKC
     FM161700 17017G27KT P6SM BKN250=



000
FTUS43 KLSX 151100
TAFUIN
TAF
KUIN 151138Z 1512/1612 30006KT P6SM SKC
     FM151500 33010KT P6SM SCT030
     FM152300 VRB04KT P6SM SKC
     FM160300 15006KT P6SM SCT250=



000
FTUS43 KLSX 151100
TAFSUS
TAF
KSUS 151138Z 1512/1612 30006KT P6SM SKC
     FM151600 33010KT P6SM SCT030
     FM152300 VRB03KT P6SM SKC
     FM160800 14004KT P6SM SKC=



000
FTUS43 KLSX 151100
TAFSTL
TAF
KSTL 151138Z 1512/1618 31007KT P6SM SKC
     FM151600 33010KT P6SM SCT030
     FM160000 VRB04KT P6SM SKC
     FM160500 15005KT P6SM SKC
     FM161700 17017G27KT P6SM BKN250=



000
FTUS43 KLSX 151100
TAFCOU
TAF
KCOU 151138Z 1512/1612 31005KT P6SM SKC
     FM151500 32007KT P6SM SCT030
     FM152200 VRB04KT P6SM SKC
     FM160300 15005KT P6SM SKC=



000
FTUS43 KLSX 150800 AAA
TAFSTL
TAF AMD
KSTL 150858Z 1509/1612 30006KT P6SM SKC
     FM151600 33010KT P6SM SCT030
     FM160100 17008KT P6SM SKC=



000
FTUS43 KLSX 150500
TAFSUS
TAF
KSUS 150530Z 1506/1606 31007KT P6SM SKC
     FM151800 29010KT P6SM SCT050
     FM160100 17008KT P6SM SKC=



000
FTUS43 KLSX 150500
TAFUIN
TAF
KUIN 150530Z 1506/1606 32007KT P6SM SKC
     FM151700 30010KT P6SM SCT050
     FM152200 24006KT P6SM SCT050
     FM160100 17009KT P6SM SKC=



000
FTUS43 KLSX 150500
TAFSTL
TAF
KSTL 150530Z 1506/1612 32009KT P6SM SKC
     FM151800 29010KT P6SM SCT050
     FM160100 17008KT P6SM SKC=



000
FTUS43 KLSX 150500
TAFCOU
TAF
KCOU 150530Z 1506/1606 32007KT P6SM SKC
     FM151700 29005KT P6SM SCT050
     FM152200 24005KT P6SM SCT050
     FM160000 17009KT P6SM SKC=



000
FTUS43 KLSX 150300 AAA
TAFSTL
TAF AMD
KSTL 150301Z 1503/1606 33015KT P6SM SCT035
     FM150600 32008KT P6SM SKC
     FM151700 29007KT P6SM SCT050
     FM160100 17008KT P6SM SKC=



000
FTUS43 KLSX 150200 AAB
TAFSUS
TAF AMD
KSUS 150209Z 1502/1524 32014KT P6SM BKN025 OVC035
     FM150300 33014KT P6SM SCT035
     FM150600 32007KT P6SM SKC
     FM151700 29007KT P6SM SCT050=



000
FTUS43 KLSX 150100 AAA
TAFSUS
TAF AMD
KSUS 150117Z 1501/1524 32014G22KT P6SM BKN009 OVC029
     FM150200 33014KT P6SM SCT035
     FM150600 32007KT P6SM SKC
     FM151700 29007KT P6SM SCT050=



000
FTUS43 KLSX 142300
TAFSTL
TAF
KSTL 142325Z 1500/1606 33016G24KT 5SM -SN BKN018 OVC035
      TEMPO 1500/1501 2SM -SN BKN008
     FM150200 33015KT P6SM SCT035
     FM150600 32008KT P6SM SKC
     FM151700 29007KT P6SM SCT050
     FM160100 17008KT P6SM SKC=



000
FTUS43 KLSX 142300
TAFSUS
TAF
KSUS 142325Z 1500/1524 32014G22KT 5SM -SN BKN018 OVC035
     FM150200 33014KT P6SM SCT035
     FM150600 32007KT P6SM SKC
     FM151700 29007KT P6SM SCT050=



000
FTUS43 KLSX 142300
TAFUIN
TAF
KUIN 142325Z 1500/1524 33014G22KT P6SM SCT025 OVC040
     FM150100 34014KT P6SM SCT040
     FM150500 32007KT P6SM SKC
     FM151700 30010KT P6SM SCT050
     FM152200 24006KT P6SM SCT050=



000
FTUS43 KLSX 142300
TAFCOU
TAF
KCOU 142325Z 1500/1524 32014G22KT P6SM BKN040
     FM150100 32014KT P6SM SCT040
     FM150500 32007KT P6SM SKC
     FM151700 29005KT P6SM SCT050
     FM152200 24005KT P6SM SCT050=



000
FTUS43 KLSX 142200 AAB
TAFCOU
TAF AMD
KCOU 142225Z 1422/1518 33014G22KT 5SM -SN BR SCT015 OVC025
     FM142300 32015G22KT P6SM BKN045
     FM150600 32007KT P6SM SKC=



    US Dept of Commerce
    National Oceanic and Atmospheric Administration
    National Weather Service
    1325 East West Highway
    Silver Spring, MD 20910
    Page Author: NWS Internet Services Team
Disclaimer
Information Quality
Credits
Glossary
Privacy Policy
Freedom of Information Act (FOIA)
About Us
Career Opportunities